createdAt,value
2018-08-04T00:00:05.314Z,99932.82
2018-08-04T00:02:43.505Z,99940.80
2018-08-04T00:05:20.602Z,99937.54
2018-08-04T00:07:57.926Z,99943.99
2018-08-04T00:10:35.757Z,99951.05
2018-08-04T00:13:12.954Z,99953.94
2018-08-04T00:15:50.083Z,99956.91
2018-08-04T00:18:27.479Z,99955.69
2018-08-04T00:21:05.291Z,99965.11
2018-08-04T00:23:42.956Z,99968.83
2018-08-04T00:26:21.048Z,99973.56
2018-08-04T00:28:58.554Z,99973.95
2018-08-04T00:34:30.399Z,99980.81
2018-08-04T00:37:08.080Z,99973.31
2018-08-04T00:39:46.491Z,99978.96
2018-08-04T00:42:24.843Z,99980.08
2018-08-04T00:45:02.650Z,99987.69
2018-08-04T00:47:40.484Z,99991.55
2018-08-04T00:50:17.181Z,99995.45
2018-08-04T00:52:54.315Z,99985.98
2018-08-04T00:55:32.297Z,99991.19
2018-08-04T00:58:10.165Z,99988.41
2018-08-04T01:00:47.355Z,99989.33
2018-08-04T01:03:24.361Z,99993.86
2018-08-04T01:06:03.123Z,100000.43
2018-08-04T01:08:41.272Z,99997.53
2018-08-04T01:11:19.884Z,100004.41
2018-08-04T01:13:58.001Z,100002.84
2018-08-04T01:16:34.113Z,100012.80
2018-08-04T01:19:11.565Z,100007.81
2018-08-04T01:21:49.354Z,99999.88
2018-08-04T01:24:27.437Z,99997.08
2018-08-04T01:27:04.793Z,99990.10
2018-08-04T01:29:43.295Z,100004.84
2018-08-04T01:32:21.687Z,100008.73
2018-08-04T01:34:59.607Z,100015.38
2018-08-04T01:37:36.996Z,100023.13
2018-08-04T01:40:14.395Z,100023.27
2018-08-04T01:42:52.055Z,100016.58
2018-08-04T01:45:30.353Z,100015.55
2018-08-04T01:48:07.595Z,100017.01
2018-08-04T01:50:44.560Z,100023.87
2018-08-04T01:53:21.838Z,100016.97
2018-08-04T01:55:59.595Z,100017.95
2018-08-04T01:58:36.956Z,100017.16
2018-08-04T02:01:14.680Z,100020.08
2018-08-04T02:03:52.230Z,100025.43
2018-08-04T02:06:29.030Z,100036.80
2018-08-04T02:09:07.719Z,100037.02
2018-08-04T02:11:45.191Z,100045.05
2018-08-04T02:14:22.715Z,100044.67
2018-08-04T02:17:00.151Z,100055.41
2018-08-04T02:19:37.673Z,100054.67
2018-08-04T02:22:15.511Z,100060.86
2018-08-04T02:24:53.353Z,100059.75
2018-08-04T02:27:30.119Z,100061.82
2018-08-04T02:30:07.627Z,100063.77
2018-08-04T02:32:45.031Z,100067.50
2018-08-04T02:35:21.637Z,100073.43
2018-08-04T02:37:59.592Z,100068.59
2018-08-04T02:40:36.711Z,100067.40
2018-08-04T02:43:14.437Z,100061.57
2018-08-04T02:45:52.026Z,100059.27
2018-08-04T02:48:29.755Z,100056.20
2018-08-04T02:51:07.163Z,100050.00
2018-08-04T02:53:44.638Z,100056.61
2018-08-04T02:56:22.394Z,100059.38
2018-08-04T02:59:00.568Z,100063.14
2018-08-04T03:01:38.767Z,100066.85
2018-08-04T03:04:16.238Z,100069.19
2018-08-04T03:06:53.563Z,100061.37
2018-08-04T03:09:31.432Z,100071.39
2018-08-04T03:12:08.528Z,100068.09
2018-08-04T03:14:45.274Z,100076.14
2018-08-04T03:17:23.161Z,100070.67
2018-08-04T03:19:59.564Z,100071.92
2018-08-04T03:22:36.719Z,100072.30
2018-08-04T03:25:14.126Z,100070.10
2018-08-04T03:27:51.598Z,100073.07
2018-08-04T03:30:28.245Z,100076.27
2018-08-04T03:33:05.766Z,100079.71
2018-08-04T03:35:43.004Z,100074.20
2018-08-04T03:38:20.440Z,100071.79
2018-08-04T03:40:57.157Z,100068.95
2018-08-04T03:43:34.279Z,100067.94
2018-08-04T03:46:11.199Z,100071.55
2018-08-04T03:48:47.851Z,100066.88
2018-08-04T03:51:24.926Z,100069.47
2018-08-04T03:54:02.204Z,100074.08
2018-08-04T03:56:39.283Z,100073.30
2018-08-04T03:59:15.676Z,100075.54
2018-08-04T04:01:53.194Z,100064.88
2018-08-04T04:04:30.388Z,100063.20
2018-08-04T04:07:07.444Z,100057.49
2018-08-04T04:09:44.955Z,100062.27
2018-08-04T04:12:21.923Z,100068.91
2018-08-04T04:14:59.351Z,100072.28
2018-08-04T04:17:42.516Z,100067.23
2018-08-04T04:20:21.604Z,100063.86
2018-08-04T04:22:59.119Z,100066.34
2018-08-04T04:25:36.636Z,100070.64
2018-08-04T04:28:14.727Z,100066.28
2018-08-04T04:30:51.344Z,100071.05
2018-08-04T04:33:29.664Z,100072.30
2018-08-04T04:36:06.348Z,100065.70
2018-08-04T04:38:43.119Z,100066.28
2018-08-04T04:41:21.842Z,100060.63
2018-08-04T04:43:59.275Z,100060.45
2018-08-04T04:46:39.696Z,100062.78
2018-08-04T04:49:17.394Z,100049.95
2018-08-04T04:51:54.911Z,100055.59
2018-08-04T04:54:32.267Z,100052.61
2018-08-04T04:57:09.918Z,100047.28
2018-08-04T04:59:48.714Z,100042.33
2018-08-04T05:02:25.635Z,100039.07
2018-08-04T05:05:03.075Z,100040.46
2018-08-04T05:07:40.720Z,100037.30
2018-08-04T05:10:18.076Z,100036.95
2018-08-04T05:12:55.597Z,100027.97
2018-08-04T05:15:32.520Z,100030.72
2018-08-04T05:18:10.553Z,100031.02
2018-08-04T05:20:47.961Z,100029.84
2018-08-04T05:23:24.724Z,100021.09
2018-08-04T05:26:01.562Z,100019.38
2018-08-04T05:28:39.194Z,100012.19
2018-08-04T05:31:16.878Z,100005.20
2018-08-04T05:33:54.041Z,100001.39
2018-08-04T05:36:31.889Z,99997.54
2018-08-04T05:39:10.837Z,99984.84
2018-08-04T05:41:48.078Z,99988.72
2018-08-04T05:44:25.274Z,99987.72
2018-08-04T05:47:02.155Z,99983.34
2018-08-04T05:49:40.367Z,99983.47
2018-08-04T05:52:17.364Z,99982.66
2018-08-04T05:54:54.638Z,99971.92
2018-08-04T05:57:32.071Z,99964.81
2018-08-04T06:00:13.209Z,99960.63
2018-08-04T06:02:58.707Z,99961.94
2018-08-04T06:05:37.752Z,99954.84
2018-08-04T06:08:18.831Z,99946.42
2018-08-04T06:10:55.965Z,99934.63
2018-08-04T06:13:33.073Z,99937.22
2018-08-04T06:16:10.432Z,99926.34
2018-08-04T06:18:48.564Z,99925.67
2018-08-04T06:21:25.109Z,99915.27
2018-08-04T06:24:02.166Z,99913.48
2018-08-04T06:26:39.362Z,99907.92
2018-08-04T06:29:16.889Z,99905.00
2018-08-04T06:34:30.006Z,99891.10
2018-08-04T06:37:06.884Z,99894.69
2018-08-04T06:39:43.953Z,99880.01
2018-08-04T06:42:21.349Z,99883.98
2018-08-04T06:44:58.555Z,99881.64
2018-08-04T06:47:35.517Z,99872.09
2018-08-04T06:50:13.443Z,99871.23
2018-08-04T06:52:51.482Z,99860.53
2018-08-04T06:55:28.284Z,99860.83
2018-08-04T06:58:05.186Z,99860.67
2018-08-04T07:00:46.865Z,99860.80
2018-08-04T07:03:29.114Z,99856.13
2018-08-04T07:06:06.318Z,99849.48
2018-08-04T07:08:43.521Z,99841.55
2018-08-04T07:11:21.043Z,99836.65
2018-08-04T07:13:57.563Z,99842.93
2018-08-04T07:16:34.480Z,99847.98
2018-08-04T07:19:10.531Z,99842.23
2018-08-04T07:21:47.835Z,99847.18
2018-08-04T07:24:34.069Z,99840.40
2018-08-04T07:27:14.558Z,99846.30
2018-08-04T07:29:53.729Z,99839.16
2018-08-04T07:32:32.164Z,99845.90
2018-08-04T07:35:09.313Z,99843.13
2018-08-04T07:37:47.001Z,99841.33
2018-08-04T07:40:24.606Z,99836.64
2018-08-04T07:43:03.275Z,99823.88
2018-08-04T07:45:41.352Z,99814.30
2018-08-04T07:48:24.161Z,99816.84
2018-08-04T07:51:01.998Z,99814.61
2018-08-04T07:53:39.411Z,99815.69
2018-08-04T07:56:16.092Z,99808.27
2018-08-04T07:58:54.283Z,99801.95
2018-08-04T08:06:00.600Z,99793.94
2018-08-04T08:08:45.835Z,99793.41
2018-08-04T08:11:31.163Z,99787.25
2018-08-04T08:14:08.042Z,99778.59
2018-08-04T08:16:44.952Z,99773.30
2018-08-04T08:19:21.610Z,99773.31
2018-08-04T08:21:59.435Z,99762.48
2018-08-04T08:24:36.476Z,99754.48
2018-08-04T08:27:14.634Z,99754.48
2018-08-04T08:29:55.035Z,99749.70
2018-08-04T08:32:32.136Z,99745.44
2018-08-04T08:35:09.716Z,99742.87
2018-08-04T08:37:47.132Z,99744.16
2018-08-04T08:40:24.247Z,99739.50
2018-08-04T08:43:00.948Z,99733.19
2018-08-04T08:45:38.693Z,99729.59
2018-08-04T08:48:16.116Z,99730.49
2018-08-04T08:53:40.142Z,99728.51
2018-08-04T08:56:18.967Z,99722.91
2018-08-04T08:58:56.418Z,99720.92
2018-08-04T09:01:34.155Z,99711.80
2018-08-04T09:04:16.712Z,99706.67
2018-08-04T09:06:54.160Z,99703.02
2018-08-04T09:09:31.153Z,99694.55
2018-08-04T09:12:19.915Z,99687.51
2018-08-04T09:15:12.620Z,99693.84
2018-08-04T09:17:48.803Z,99691.22
2018-08-04T09:20:27.002Z,99689.66
2018-08-04T09:23:04.085Z,99680.59
2018-08-04T09:25:41.910Z,99683.88
2018-08-04T09:28:19.599Z,99685.88
2018-08-04T09:30:56.447Z,99680.91
2018-08-04T09:33:34.193Z,99681.31
2018-08-04T09:36:12.352Z,99676.93
2018-08-04T09:38:50.082Z,99670.23
2018-08-04T09:41:30.064Z,99669.91
2018-08-04T09:44:06.472Z,99668.63
2018-08-04T09:46:43.911Z,99667.34
2018-08-04T09:49:21.393Z,99662.70
2018-08-04T09:51:58.601Z,99666.52
2018-08-04T09:54:36.881Z,99665.75
2018-08-04T09:57:14.965Z,99667.28
2018-08-04T09:59:53.104Z,99668.09
2018-08-04T10:02:31.030Z,99672.13
2018-08-04T10:05:08.886Z,99665.39
2018-08-04T10:14:15.596Z,99659.14
2018-08-04T10:17:12.999Z,99661.56
2018-08-04T10:19:48.628Z,99660.72
2018-08-04T10:22:24.511Z,99661.61
2018-08-04T10:25:03.664Z,99661.89
2018-08-04T10:27:39.444Z,99658.92
2018-08-04T10:30:15.700Z,99663.52
2018-08-04T10:32:51.684Z,99667.56
2018-08-04T10:35:27.393Z,99667.36
2018-08-04T10:38:03.032Z,99666.95
2018-08-04T10:40:38.832Z,99661.56
2018-08-04T10:43:14.481Z,99664.20
2018-08-04T10:45:50.748Z,99675.69
2018-08-04T10:48:26.554Z,99679.83
2018-08-04T10:51:02.690Z,99679.89
2018-08-04T10:53:38.747Z,99682.25
2018-08-04T10:56:15.834Z,99679.58
2018-08-04T10:58:51.507Z,99684.73
2018-08-04T11:01:27.891Z,99685.55
2018-08-04T11:04:03.462Z,99690.94
2018-08-04T11:06:39.194Z,99690.94
2018-08-04T11:09:15.283Z,99694.13
2018-08-04T11:11:51.082Z,99696.18
2018-08-04T11:14:26.966Z,99695.90
2018-08-04T11:17:02.718Z,99696.99
2018-08-04T11:19:38.552Z,99701.28
2018-08-04T11:22:14.466Z,99706.36
2018-08-04T11:24:51.525Z,99703.85
2018-08-04T11:27:27.844Z,99705.47
2018-08-04T11:30:03.834Z,99705.13
2018-08-04T11:32:40.398Z,99709.45
2018-08-04T11:35:16.523Z,99708.97
2018-08-04T11:37:53.112Z,99716.45
2018-08-04T11:40:29.637Z,99712.34
2018-08-04T11:43:06.826Z,99713.97
2018-08-04T11:45:42.721Z,99719.20
2018-08-04T11:48:19.330Z,99722.42
2018-08-04T11:50:55.475Z,99724.94
2018-08-04T11:53:31.931Z,99729.45
2018-08-04T11:56:09.052Z,99733.69
2018-08-04T11:58:45.963Z,99745.52
2018-08-04T12:01:21.889Z,99752.43
2018-08-04T12:03:58.202Z,99756.92
2018-08-04T12:06:34.661Z,99762.27
2018-08-04T12:09:14.910Z,99767.23
2018-08-04T12:11:51.273Z,99765.86
2018-08-04T12:14:28.152Z,99767.97
2018-08-04T12:17:05.200Z,99774.39
2018-08-04T12:19:42.333Z,99774.30
2018-08-04T12:22:19.681Z,99782.23
2018-08-04T12:24:57.197Z,99785.65
2018-08-04T12:27:34.269Z,99776.09
2018-08-04T12:30:12.481Z,99774.97
2018-08-04T12:32:48.996Z,99776.01
2018-08-04T12:35:26.239Z,99775.36
2018-08-04T12:38:02.561Z,99788.23
2018-08-04T12:40:39.571Z,99781.95
2018-08-04T12:43:17.234Z,99791.67
2018-08-04T12:45:54.474Z,99797.86
2018-08-04T12:48:32.399Z,99796.40
2018-08-04T12:51:08.303Z,99799.58
2018-08-04T12:53:45.080Z,99798.70
2018-08-04T12:56:21.078Z,99800.27
2018-08-04T12:58:58.154Z,99811.52
2018-08-04T13:01:35.285Z,99816.02
2018-08-04T13:04:16.141Z,99823.27
2018-08-04T13:06:53.065Z,99839.39
2018-08-04T13:09:30.571Z,99849.33
2018-08-04T13:12:07.757Z,99859.95
2018-08-04T13:14:44.600Z,99875.44
2018-08-04T13:17:20.553Z,99888.15
2018-08-04T13:19:58.162Z,99901.78
2018-08-04T13:22:35.864Z,99908.08
2018-08-04T13:25:14.347Z,99914.97
2018-08-04T13:27:59.124Z,99926.23
2018-08-04T13:30:36.364Z,99925.05
2018-08-04T13:33:13.998Z,99932.86
2018-08-04T13:35:50.794Z,99931.83
2018-08-04T13:38:27.327Z,99927.77
2018-08-04T13:41:03.812Z,99934.84
2018-08-04T13:43:40.582Z,99944.78
2018-08-04T13:46:18.663Z,99935.74
2018-08-04T13:48:56.200Z,99930.42
2018-08-04T13:51:36.407Z,99920.76
2018-08-04T13:54:24.533Z,99922.86
2018-08-04T13:57:02.413Z,99921.00
2018-08-04T14:00:04.772Z,99926.53
2018-08-04T14:02:42.238Z,99928.61
2018-08-04T14:05:18.638Z,99922.79
2018-08-04T14:07:55.687Z,99920.67
2018-08-04T14:10:34.407Z,99925.53
2018-08-04T14:13:11.841Z,99927.20
2018-08-04T14:15:49.526Z,99934.31
2018-08-04T14:18:27.253Z,99941.38
2018-08-04T14:21:04.406Z,99949.61
2018-08-04T14:23:41.013Z,99944.05
2018-08-04T14:26:17.673Z,99946.34
2018-08-04T14:28:54.039Z,99956.53
2018-08-04T14:31:31.002Z,99959.09
2018-08-04T14:34:08.067Z,99958.91
2018-08-04T14:36:44.715Z,99960.54
2018-08-04T14:39:22.367Z,99967.19
2018-08-04T14:41:59.151Z,99969.61
2018-08-04T14:44:36.618Z,99975.36
2018-08-04T14:47:21.751Z,99975.14
2018-08-04T14:49:58.967Z,99985.91
2018-08-04T14:52:34.825Z,99991.14
2018-08-04T14:55:28.232Z,99994.11
2018-08-04T14:58:23.704Z,99995.64
2018-08-04T15:01:03.951Z,100003.22
2018-08-04T15:03:45.623Z,100002.29
2018-08-04T15:06:25.034Z,100013.20
2018-08-04T15:09:12.481Z,100013.61
2018-08-04T15:12:05.608Z,100021.11
2018-08-04T15:14:43.385Z,100025.00
2018-08-04T15:17:44.636Z,100032.20
2018-08-04T15:20:48.349Z,100030.87
2018-08-04T15:23:51.791Z,100028.80
2018-08-04T15:26:55.516Z,100025.75
2018-08-04T15:29:59.281Z,100032.80
2018-08-04T15:32:43.251Z,100034.25
2018-08-04T15:35:20.474Z,100041.53
2018-08-04T15:38:05.610Z,100046.77
2018-08-04T15:41:08.070Z,100046.58
2018-08-04T15:43:47.664Z,100051.92
2018-08-04T15:46:49.998Z,100056.56
2018-08-04T15:49:28.530Z,100051.00
2018-08-04T15:52:06.368Z,100054.41
2018-08-04T15:54:59.911Z,100050.91
2018-08-04T15:57:38.850Z,100052.14
2018-08-04T16:00:37.394Z,100054.52
2018-08-04T16:03:35.436Z,100058.41
2018-08-04T16:06:39.625Z,100059.14
2018-08-04T16:09:19.162Z,100056.96
2018-08-04T16:11:57.980Z,100057.81
2018-08-04T16:14:37.036Z,100056.25
2018-08-04T16:17:14.402Z,100048.45
2018-08-04T16:19:51.271Z,100044.94
2018-08-04T16:22:28.954Z,100046.91
2018-08-04T16:25:05.262Z,100044.45
2018-08-04T16:27:42.193Z,100047.13
2018-08-04T16:30:29.305Z,100040.85
2018-08-04T16:33:12.126Z,100033.66
2018-08-04T16:35:58.881Z,100026.05
2018-08-04T16:38:37.917Z,100025.12
2018-08-04T16:41:15.998Z,100020.59
2018-08-04T16:43:54.720Z,100010.12
2018-08-04T16:46:34.126Z,100000.88
2018-08-04T16:49:11.275Z,99991.52
2018-08-04T16:52:15.692Z,99995.61
2018-08-04T16:54:58.522Z,99992.71
2018-08-04T16:57:37.196Z,99996.27
2018-08-04T17:00:15.621Z,99988.77
2018-08-04T17:02:53.350Z,99984.91
2018-08-04T17:05:31.757Z,99980.31
2018-08-04T17:08:10.804Z,99978.27
2018-08-04T17:10:49.520Z,99974.92
2018-08-04T17:13:27.596Z,99960.22
2018-08-04T17:16:05.684Z,99968.95
2018-08-04T17:18:43.263Z,99965.98
2018-08-04T17:21:20.884Z,99956.77
2018-08-04T17:23:58.636Z,99946.72
2018-08-04T17:26:36.716Z,99940.05
2018-08-04T17:29:15.437Z,99939.42
2018-08-04T17:31:54.050Z,99938.04
2018-08-04T17:34:33.201Z,99938.16
2018-08-04T17:37:10.750Z,99938.38
2018-08-04T17:39:48.592Z,99931.39
2018-08-04T17:42:41.197Z,99922.75
2018-08-04T17:45:48.414Z,99919.27
2018-08-04T17:48:52.661Z,99917.81
2018-08-04T17:52:00.014Z,99916.63
2018-08-04T17:55:01.285Z,99923.00
2018-08-04T17:58:03.880Z,99924.16
2018-08-04T18:00:43.786Z,99920.14
2018-08-04T18:03:44.038Z,99917.59
2018-08-04T18:06:46.560Z,99926.27
2018-08-04T18:09:52.324Z,99918.45
2018-08-04T18:12:57.038Z,99923.75
2018-08-04T18:16:01.698Z,99921.78
2018-08-04T18:18:53.626Z,99919.78
2018-08-04T18:21:39.083Z,99917.52
2018-08-04T18:24:17.270Z,99916.87
2018-08-04T18:26:55.924Z,99914.39
2018-08-04T18:29:33.785Z,99914.32
2018-08-04T18:32:34.363Z,99905.56
2018-08-04T18:35:30.006Z,99910.73
2018-08-04T18:38:08.569Z,99912.52
2018-08-04T18:40:47.688Z,99905.23
2018-08-04T18:43:26.353Z,99900.71
2018-08-04T18:46:06.314Z,99897.48
2018-08-04T18:48:46.026Z,99891.55
2018-08-04T18:51:24.124Z,99890.28
2018-08-04T18:54:01.930Z,99888.95
2018-08-04T18:56:40.553Z,99885.46
2018-08-04T18:59:19.248Z,99897.08
2018-08-04T19:01:57.931Z,99891.33
2018-08-04T19:04:36.475Z,99899.23
2018-08-04T19:07:14.479Z,99896.97
2018-08-04T19:09:53.197Z,99898.48
2018-08-04T19:12:32.237Z,99895.22
2018-08-04T19:15:10.904Z,99897.70
2018-08-04T19:17:48.391Z,99903.86
2018-08-04T19:20:26.721Z,99893.92
2018-08-04T19:23:04.246Z,99902.30
2018-08-04T19:25:43.003Z,99902.83
2018-08-04T19:28:21.752Z,99902.75
2018-08-04T19:31:00.807Z,99902.41
2018-08-04T19:33:40.044Z,99905.16
2018-08-04T19:36:18.857Z,99905.16
2018-08-04T19:38:56.522Z,99898.05
2018-08-04T19:41:35.607Z,99896.30
2018-08-04T19:44:14.723Z,99899.59
2018-08-04T19:46:52.796Z,99900.45
2018-08-04T19:49:31.113Z,99900.41
2018-08-04T19:52:09.854Z,99902.05
2018-08-04T19:54:48.922Z,99906.27
2018-08-04T19:57:27.276Z,99893.33
2018-08-04T20:00:05.711Z,99884.72
2018-08-04T20:02:43.788Z,99881.53
2018-08-04T20:05:22.799Z,99884.28
2018-08-04T20:08:01.513Z,99885.50
2018-08-04T20:10:39.566Z,99883.27
2018-08-04T20:13:18.002Z,99882.09
2018-08-04T20:15:56.218Z,99883.46
2018-08-04T20:18:34.472Z,99882.45
2018-08-04T20:21:12.684Z,99890.66
2018-08-04T20:23:51.557Z,99886.95
2018-08-04T20:26:29.448Z,99885.42
2018-08-04T20:29:08.089Z,99890.14
2018-08-04T20:31:46.720Z,99889.77
2018-08-04T20:34:25.271Z,99891.47
2018-08-04T20:37:03.929Z,99888.50
2018-08-04T20:39:42.997Z,99880.72
2018-08-04T20:42:21.373Z,99877.00
2018-08-04T20:45:00.570Z,99874.48
2018-08-04T20:47:39.774Z,99874.15
2018-08-04T20:50:18.181Z,99876.00
2018-08-04T20:52:56.300Z,99870.99
2018-08-04T20:55:35.598Z,99878.70
2018-08-04T20:58:13.635Z,99875.84
2018-08-04T21:00:59.303Z,99884.05
2018-08-04T21:03:38.402Z,99886.42
2018-08-04T21:06:16.834Z,99884.78
2018-08-04T21:08:56.395Z,99884.56
2018-08-04T21:11:34.806Z,99888.68
2018-08-04T21:14:12.875Z,99881.56
2018-08-04T21:16:52.555Z,99885.57
2018-08-04T21:19:31.913Z,99884.45
2018-08-04T21:22:11.601Z,99880.97
2018-08-04T21:24:49.870Z,99878.52
2018-08-04T21:27:29.043Z,99876.85
2018-08-04T21:30:07.433Z,99879.23
2018-08-04T21:32:45.593Z,99880.34
2018-08-04T21:35:24.561Z,99879.00
2018-08-04T21:38:02.323Z,99874.19
2018-08-04T21:40:40.729Z,99884.16
2018-08-04T21:43:20.042Z,99885.79
2018-08-04T21:45:58.230Z,99887.64
2018-08-04T21:48:35.753Z,99885.79
2018-08-04T21:51:14.043Z,99888.98
2018-08-04T21:53:52.395Z,99884.86
2018-08-04T21:56:30.799Z,99891.13
2018-08-04T21:59:09.286Z,99884.05
2018-08-04T22:01:50.387Z,99890.31
2018-08-04T22:04:29.840Z,99887.13
2018-08-04T22:08:14.557Z,99879.71
2018-08-04T22:10:52.648Z,99887.42
2018-08-04T22:13:31.351Z,99882.82
2018-08-04T22:16:10.069Z,99886.83
2018-08-04T22:18:48.711Z,99883.75
2018-08-04T22:21:28.073Z,99885.90
2018-08-04T22:24:06.798Z,99891.54
2018-08-04T22:26:46.476Z,99893.39
2018-08-04T22:29:25.635Z,99890.20
2018-08-04T22:32:04.229Z,99893.50
2018-08-04T22:34:43.724Z,99884.67
2018-08-04T22:37:22.634Z,99876.45
2018-08-04T22:40:00.159Z,99883.86
2018-08-04T22:42:38.205Z,99878.00
2018-08-04T22:45:55.513Z,99878.19
2018-08-04T22:48:34.085Z,99872.33
2018-08-04T22:51:12.723Z,99872.03
2018-08-04T22:53:51.200Z,99871.73
2018-08-04T22:56:30.564Z,99873.36
2018-08-04T22:59:06.631Z,99877.38
2018-08-04T23:01:45.169Z,99884.34
2018-08-04T23:04:24.401Z,99887.75
2018-08-04T23:07:03.362Z,99881.00
2018-08-04T23:09:42.474Z,99886.13
2018-08-04T23:12:19.910Z,99889.53
2018-08-04T23:14:58.715Z,99884.48
2018-08-04T23:17:37.993Z,99883.75
2018-08-04T23:20:16.076Z,99887.75
2018-08-04T23:22:54.557Z,99887.34
2018-08-04T23:25:32.973Z,99885.87
2018-08-04T23:28:12.240Z,99888.42
2018-08-04T23:30:50.632Z,99889.88
2018-08-04T23:33:30.564Z,99889.05
2018-08-04T23:36:09.439Z,99889.80
2018-08-04T23:38:48.150Z,99886.31
2018-08-04T23:41:27.433Z,99890.31
2018-08-04T23:44:06.723Z,99892.77
2018-08-04T23:46:45.561Z,99894.99
2018-08-04T23:49:23.366Z,99896.52
2018-08-04T23:52:01.166Z,99904.72
2018-08-04T23:54:39.805Z,99903.08
2018-08-04T23:57:18.728Z,99906.53
2018-08-04T23:59:57.284Z,99902.34
